Saturday, May 26, 2018, 12:12 PM GMT
Back to Local

CYFC, Fredericton, N. B.

Location: , , Canada Lat: 45.867
Local Time: 12:12 PM GMT (12:12 GMT) Lon: -66.533
Time Zone: GMT Elev: 55 ft

Show me the last for .
Show Decoded

2018-05-26 12:01 METAR CYFC 261201Z AUTO 02006KT 9SM -RA OVC012 10/09 A2965 RMK SLP043 =
2018-05-26 11:43 METAR CYFC 261143Z AUTO 02006KT 350V060 9SM -RA OVC012 10/09 A2965 RMK SLP041 =
2018-05-26 11:41 METAR CYFC 261141Z AUTO 04004KT 350V060 9SM OVC012 10/09 A2964 RMK SLP040 =
2018-05-26 11:15 METAR CYFC 261115Z AUTO 36005KT 9SM -RA OVC012 10/10 A2965 RMK SLP042 =
2018-05-26 11:00 METAR CYFC 261100Z AUTO 02006KT 9SM OVC010 10/10 A2964 RMK SLP039 =
2018-05-26 10:55 METAR CYFC 261055Z AUTO 36008KT 9SM OVC010 10/10 A2964 RMK SLP039 =
2018-05-26 10:31 METAR CYFC 261031Z AUTO 02005KT 9SM -RA OVC010 10/10 A2963 RMK SLP036 =
2018-05-26 10:00 METAR CYFC 261000Z AUTO 01010KT 9SM -RA OVC006 11/11 A2962 RMK SLP030 =
2018-05-26 09:56 METAR CYFC 260956Z AUTO 01009KT 9SM -RA OVC006 11/11 A2961 RMK SLP028 =
2018-05-26 09:02 METAR CYFC 260902Z AUTO 03009KT 6SM -RA BR OVC004 13/13 A2958 RMK SLP018 DENSITY
                 ALT 200FT =
2018-05-26 09:00 METAR CYFC 260900Z AUTO 02008KT 5SM -RA BR OVC004 13/13 A2958 RMK SLP017 DENSITY
                 ALT 200FT =
2018-05-26 08:52 METAR CYFC 260852Z AUTO 04007KT 5SM -RA BR OVC004 15/15 A2958 RMK SLP018 DENSITY
                 ALT 400FT =
2018-05-26 08:40 METAR CYFC 260840Z AUTO 04007KT 6SM -RA BR OVC004 15/15 A2957 RMK SLP015 DENSITY
                 ALT 400FT =
2018-05-26 08:36 METAR CYFC 260836Z AUTO 05007KT 3SM -RA BR OVC004 15/15 A2957 RMK SLP014 DENSITY
                 ALT 400FT =
2018-05-26 08:34 METAR CYFC 260834Z AUTO 04007KT 360V060 2SM -RA BR OVC004 15/15 A2957 RMK SLP014
                 DENSITY ALT 400FT =
2018-05-26 08:29 METAR CYFC 260829Z AUTO 05005KT 3/4SM R09/3500VP6000FT/ RA BR OVC004 15/15 A2957
                 RMK SLP014 DENSITY ALT 400FT =
2018-05-26 08:22 METAR CYFC 260822Z AUTO VRB02KT 1/2SM R09/3500VP6000FT/ -RA FG OVC004 15/15
                 A2957 RMK SLP015 DENSITY ALT 400FT =
2018-05-26 08:06 METAR CYFC 260806Z AUTO 07002KT 1/2SM R09/2600V4000FT/ FG BKN003 OVC032 15/15
                 A2956 RMK SLP011 DENSITY ALT 400FT =
2018-05-26 08:00 METAR CYFC 260800Z AUTO 06004KT 030V090 1/4SM R09/2600FT/N FG BKN001 OVC032
                 15/15 A2955 RMK SLP008 DENSITY ALT 400FT =
2018-05-26 07:00 METAR CYFC 260700Z AUTO 00000KT 3/8SM R09/2200FT/N FG VV002 15/15 A2954 RMK
                 SLP005 DENSITY ALT 400FT =
2018-05-26 06:38 METAR CYFC 260638Z AUTO 20004KT 5/8SM R09/P6000FT/D BR BKN001 OVC130 14/14 A2954
                 RMK VIS VRB 3/8-1 1/4 SLP006 DENSITY ALT 400FT =
2018-05-26 06:33 METAR CYFC 260633Z AUTO 19004KT 120V200 3/4SM R09/P6000FT/D BR BKN001 OVC130
                 15/15 A2955 RMK VIS VRB 3/8-1 1/2 SLP007 DENSITY ALT 400FT =
2018-05-26 06:29 METAR CYFC 260629Z AUTO 16003KT 090V180 1SM R09/P6000FT/D BR BKN003 BKN120
                 OVC140 15/15 A2954 RMK SLP006 DENSITY ALT 400FT =
2018-05-26 06:17 METAR CYFC 260617Z AUTO VRB02KT 3/4SM R09/P6000FT/N BR FEW003 OVC130 15/15 A2954
                 RMK SLP006 DENSITY ALT 400FT =
2018-05-26 06:05 METAR CYFC 260605Z AUTO VRB03KT 5/8SM R09/P6000FT/D BR FEW003 SCT038 BKN120
                 BKN150 15/15 A2956 RMK SLP010 DENSITY ALT 400FT =
2018-05-26 06:00 METAR CYFC 260600Z AUTO 00000KT 1 1/4SM BR FEW003 SCT038 SCT130 BKN150 15/15
                 A2956 RMK SLP011 DENSITY ALT 400FT =
2018-05-26 05:59 METAR CYFC 260559Z AUTO 00000KT 1 3/4SM BR FEW003 SCT038 SCT130 BKN150 15/15
                 A2956 RMK SLP011 DENSITY ALT 400FT =
2018-05-26 05:51 METAR CYFC 260551Z AUTO VRB02KT 2SM BR FEW001 SCT150 BKN190 15/15 A2956 RMK
                 SLP010 DENSITY ALT 400FT =
2018-05-26 05:34 METAR CYFC 260534Z AUTO 27004KT 180V300 1 1/4SM BR SCT001 BKN047 BKN070 BKN150
                 15/15 A2957 RMK SLP014 DENSITY ALT 400FT =
2018-05-26 05:21 METAR CYFC 260521Z AUTO VRB02KT 1 1/2SM BR BKN001 BKN047 OVC055 15/15 A2956 RMK
                 SLP013 DENSITY ALT 400FT =
2018-05-26 05:16 METAR CYFC 260516Z AUTO VRB02KT 1 3/4SM -RA BR BKN001 BKN046 BKN055 OVC070 15/15
                 A2956 RMK SLP013 DENSITY ALT 400FT =
2018-05-26 05:00 METAR CYFC 260500Z AUTO 21004KT 1 1/4SM -RA BR FEW001 BKN055 OVC160 15/15 A2957
                 RMK SLP014 DENSITY ALT 400FT =
2018-05-26 04:35 METAR CYFC 260435Z AUTO 13002KT 1 3/4SM BR BKN160 OVC180 15/15 A2956 RMK SLP011
                 DENSITY ALT 400FT =
2018-05-26 04:21 METAR CYFC 260421Z AUTO VRB02KT 2SM BR SCT055 BKN160 OVC180 15/15 A2957 RMK
                 SLP014 DENSITY ALT 400FT =
2018-05-26 04:16 METAR CYFC 260416Z AUTO 00000KT 1 3/4SM BR SCT055 OVC180 15/15 A2957 RMK SLP014
                 DENSITY ALT 400FT =
2018-05-26 04:00 METAR CYFC 260400Z AUTO 21004KT 2 1/2SM BR OVC055 15/15 A2957 RMK SLP016 DENSITY
                 ALT 400FT =
2018-05-26 03:53 METAR CYFC 260353Z AUTO 20004KT 2 1/2SM BR BKN055 BKN094 15/15 A2958 RMK SLP017
                 DENSITY ALT 400FT =
2018-05-26 03:00 METAR CYFC 260300Z AUTO 05002KT 3SM BR BKN070 OVC081 15/15 A2956 RMK SLP012
                 DENSITY ALT 500FT =
2018-05-26 02:55 METAR CYFC 260255Z AUTO 05003KT 2SM BR BKN075 OVC220 15/15 A2956 RMK SLP010
                 DENSITY ALT 500FT =
2018-05-26 02:27 METAR CYFC 260227Z AUTO 00000KT 1 3/4SM BR BKN075 BKN130 BKN220 15/15 A2955 RMK
                 VIS VRB 1-3 SLP007 DENSITY ALT 500FT =
2018-05-26 02:25 METAR CYFC 260225Z AUTO 00000KT 2 1/4SM BR BKN075 BKN130 15/15 A2955 RMK VIS VRB
                 1-3 SLP007 DENSITY ALT 500FT =
2018-05-26 02:05 METAR CYFC 260205Z AUTO VRB02KT 5SM BR SCT080 BKN091 BKN130 16/16 A2955 RMK
                 SLP007 DENSITY ALT 500FT =
2018-05-26 02:00 METAR CYFC 260200Z AUTO 17003KT 7SM SCT080 SCT091 BKN130 16/16 A2955 RMK PRESFR
                 SLP007 DENSITY ALT 500FT =
2018-05-26 01:43 METAR CYFC 260143Z AUTO 00000KT 6SM BR BKN090 BKN130 16/16 A2957 RMK SLP014
                 DENSITY ALT 500FT =
2018-05-26 01:39 METAR CYFC 260139Z AUTO 00000KT 5SM BR BKN090 BKN130 16/16 A2957 RMK SLP014
                 DENSITY ALT 500FT =
2018-05-26 01:00 METAR CYFC 260100Z AUTO 24003KT 5SM -RA BR FEW034 BKN065 OVC077 16/16 A2959 RMK
                 LTNG DIST NE E NW PRESRR SLP021 DENSITY ALT 500FT =
2018-05-26 00:50 METAR CYFC 260050Z AUTO 00000KT 3SM -RA BR SCT036 SCT060 BKN072 OVC100 16/16
                 A2958 RMK LTNG DIST NW SLP017 DENSITY ALT 600FT =
2018-05-26 00:46 METAR CYFC 260046Z AUTO 00000KT 3SM RA VCTS BR SCT036 BKN060 BKN078 OVC110 16/16
                 A2957 RMK LTNG DIST N NW SLP016 DENSITY ALT 600FT =
2018-05-26 00:42 METAR CYFC 260042Z AUTO 34004KT 4SM +RA VCTS BR SCT036 BKN060 BKN080 OVC190
                 16/16 A2958 RMK LTNG DIST N NW PRESRR SLP018 DENSITY ALT 500FT =
2018-05-26 00:40 METAR CYFC 260040Z AUTO 32003KT 5SM -RA VCTS BR FEW031 SCT060 BKN083 OVC200
                 16/16 A2958 RMK LTNG DIST N NW PRESRR SLP018 DENSITY ALT 500FT
2018-05-26 00:37 METAR CYFC 260037Z AUTO 33007KT 6SM -RA VCTS BR SCT060 BKN080 BKN120 OVC190
                 16/16 A2959 RMK LTNG DIST N NW PRESRR SLP021 DENSITY ALT 500FT =
2018-05-26 00:36 METAR CYFC 260036Z AUTO 33008KT 6SM VCTS BR FEW060 BKN082 BKN130 OVC200 16/16
                 A2959 RMK LTNG DIST N NW PRESRR SLP021 DENSITY ALT 500FT =
2018-05-26 00:30 METAR CYFC 260030Z AUTO 32008KT 320V050 5SM VCTS BR SCT080 BKN120 BKN180 OVC230
                 16/16 A2957 RMK LTNG DIST N NW PRESRR SLP015 DENSITY ALT 500FT
2018-05-26 00:27 METAR CYFC 260027Z AUTO VRB04KT 5SM BR SCT085 BKN120 BKN180 OVC230 16/16 A2955
                 RMK LTNG DIST N NW SLP007 DENSITY ALT 500FT =
2018-05-26 00:08 METAR CYFC 260008Z AUTO 15004KT 140V260 9SM SCT044 SCT130 BKN230 16/16 A2953 RMK
                 SLP002 DENSITY ALT 600FT =
2018-05-26 00:00 METAR CYFC 260000Z AUTO VRB02KT 6SM -RA BR SCT046 SCT070 BKN095 BKN150 16/16
                 A2954 RMK PCPN 1.0MM PAST HR SLP003 DENSITY ALT 600FT =
2018-05-25 23:57 METAR CYFC 252357Z AUTO VRB02KT 6SM -RA BR SCT046 BKN075 BKN100 BKN150 16/16
                 A2954 RMK SLP004 DENSITY ALT 600FT =
2018-05-25 23:49 METAR CYFC 252349Z AUTO VRB03KT 5SM -RA BR BKN048 BKN070 OVC090 16/16 A2954 RMK
                 PRESFR SLP005 DENSITY ALT 600FT =
2018-05-25 23:46 METAR CYFC 252346Z AUTO VRB02KT 5SM RA VCTS BR SCT048 BKN070 OVC090 16/16 A2954
                 RMK PRESFR SLP004 DENSITY ALT 600FT =
2018-05-25 23:33 METAR CYFC 252333Z AUTO 34010KT 9SM -RA VCTS FEW034 BKN090 OVC110 16/16 A2956
                 RMK LTNG DIST N W PRESRR SLP013 DENSITY ALT 600FT =
2018-05-25 23:30 METAR CYFC 252330Z AUTO 34007KT 9SM -RA FEW034 BKN090 OVC110 16/15 A2956 RMK
                 LTNG DIST N NW PRESRR SLP010 DENSITY ALT 600FT =
2018-05-25 23:26 METAR CYFC 252326Z AUTO 36007KT 340V130 9SM FEW033 BKN087 OVC110 16/15 A2955 RMK
                 LTNG DIST N NW PRESRR SLP009 DENSITY ALT 600FT =
2018-05-25 23:10 METAR CYFC 252310Z AUTO 05008KT 020V140 6SM RA BR SCT040 BKN065 OVC087 17/16
                 A2952 RMK LTNG DIST E NW SLP997 DENSITY ALT 700FT =
2018-05-25 23:00 METAR CYFC 252300Z AUTO 10008KT 9SM -RA VCTS SCT050 BKN070 BKN098 OVC120 17/16
                 A2953 RMK LTNG DIST NE E SLP001 DENSITY ALT 700FT =
2018-05-25 22:55 METAR CYFC 252255Z AUTO 11008KT 7SM -RA VCTS BKN048 BKN070 BKN088 OVC120 17/15
                 A2953 RMK LTNG DIST NE E PRESFR SLP000 DENSITY ALT 800FT =
2018-05-25 22:54 METAR CYFC 252254Z AUTO 11008KT 5SM -RA VCTS BR BKN048 BKN065 BKN086 OVC120
                 17/15 A2953 RMK LTNG DIST NE E PRESFR SLP001 DENSITY ALT 700FT =
2018-05-25 22:53 METAR CYFC 252253Z AUTO 11007KT 5SM RA BR BKN048 BKN065 OVC086 17/16 A2954 RMK
                 LTNG DIST NE E PRESFR SLP003 DENSITY ALT 800FT =
2018-05-25 22:49 METAR CYFC 252249Z AUTO 11007KT 020V120 3SM RA VCTS BR BKN048 BKN065 OVC078
                 17/16 A2954 RMK LTNG DIST NE W PRESFR SLP004 DENSITY ALT 700FT =
2018-05-25 22:42 METAR CYFC 252242Z AUTO 05006KT 350V060 4SM +RA VCTS BKN050 BKN070 OVC089 18/15
                 A2956 RMK LTNG DIST NE W SLP012 DENSITY ALT 800FT =
2018-05-25 22:41 METAR CYFC 252241Z AUTO 04007KT 350V050 5SM RA VCTS BKN050 BKN070 OVC089 18/15
                 A2956 RMK LTNG DIST NE W SLP013 DENSITY ALT 800FT =
2018-05-25 22:27 METAR CYFC 252227Z AUTO 35010KT 9SM RA VCTS FEW060 SCT072 OVC096 19/15 A2957 RMK
                 LTNG DIST N NE NW PRESRR SLP014 DENSITY ALT 900FT =
2018-05-25 22:10 METAR CYFC 252210Z AUTO 07004KT 9SM -RA BKN100 BKN120 21/14 A2951 RMK LTNG DIST
                 N NE NW PRESRR SLP996 DENSITY ALT 1200FT =
2018-05-25 22:00 METAR CYFC 252200Z AUTO 06006KT 9SM SCT100 SCT120 22/14 A2949 RMK LTNG DIST N NW
                 SLP987 DENSITY ALT 1300FT =
2018-05-25 21:00 METAR CYFC 252100Z AUTO 06010G16KT 9SM FEW085 24/12 A2949 RMK SLP989 DENSITY ALT
                 1500FT =
2018-05-25 20:00 METAR CYFC 252000Z AUTO 08007KT 9SM CLR 26/12 A2950 RMK SLP990 DENSITY ALT
                 1800FT =
2018-05-25 19:48 METAR CYFC 251948Z AUTO 03006KT 340V070 9SM FEW090 26/12 A2950 RMK SLP991
                 DENSITY ALT 1800FT =
2018-05-25 19:38 METAR CYFC 251938Z AUTO VRB02KT 4SM HZ SCT090 SCT110 26/11 A2950 RMK SLP991
                 DENSITY ALT 1800FT =
2018-05-25 19:00 METAR CYFC 251900Z AUTO 23008KT 9SM BKN095 BKN120 25/12 A2951 RMK SLP996 DENSITY
                 ALT 1600FT =
2018-05-25 18:00 METAR CYFC 251800Z AUTO 28003KT 240V310 9SM BKN100 BKN120 24/11 A2954 RMK SLP006
                 DENSITY ALT 1500FT =
2018-05-25 17:00 METAR CYFC 251700Z AUTO 22009KT 180V270 9SM FEW080 SCT094 SCT120 23/11 A2956 RMK
                 PRESFR SLP013 DENSITY ALT 1300FT =
2018-05-25 16:00 METAR CYFC 251600Z AUTO 20010G17KT 9SM FEW100 21/12 A2959 RMK PRESFR SLP020
                 DENSITY ALT 1100FT =
2018-05-25 15:00 METAR CYFC 251500Z AUTO 21006KT 190V260 9SM SCT100 SCT120 16/11 A2965 RMK SLP041
                 DENSITY ALT 500FT =
2018-05-25 14:00 METAR CYFC 251400Z AUTO 00000KT 9SM BKN100 BKN120 14/10 A2967 RMK SLP050 DENSITY
                 ALT 200FT =
2018-05-25 13:24 METAR CYFC 251324Z AUTO 20006KT 140V220 9SM SCT011 BKN110 13/11 A2967 RMK SLP050
                 DENSITY ALT 100FT =
2018-05-25 13:00 METAR CYFC 251300Z AUTO 22006KT 9SM BKN011 12/10 A2968 RMK SLP052 =
2018-05-25 12:28 METAR CYFC 251228Z AUTO 19006KT 9SM OVC011 11/10 A2969 RMK SLP057 =

Support USWX by starting your Amazon purchase here.